createdAt,value
2023-02-06T00:02:27.999Z,100.00
2023-02-06T00:05:14.871Z,99.70
2023-02-06T00:07:47.895Z,100.00
2023-02-06T00:10:34.797Z,99.61
2023-02-06T00:13:07.900Z,99.98
2023-02-06T00:15:54.870Z,100.00
2023-02-06T00:18:27.920Z,100.00
2023-02-06T00:21:14.802Z,100.00
2023-02-06T00:23:47.967Z,100.00
2023-02-06T00:26:35.784Z,100.00
2023-02-06T00:29:09.050Z,100.00
2023-02-06T00:31:55.895Z,100.00
2023-02-06T00:34:35.799Z,100.00
2023-02-06T00:37:23.875Z,100.00
2023-02-06T00:39:56.923Z,98.73
2023-02-06T00:42:43.814Z,99.57
2023-02-06T00:45:16.929Z,99.00
2023-02-06T00:48:04.028Z,99.71
2023-02-06T00:50:36.970Z,99.66
2023-02-06T00:53:23.858Z,99.29
2023-02-06T00:55:56.974Z,98.46
2023-02-06T00:58:43.834Z,99.07
2023-02-06T01:01:17.061Z,98.31
2023-02-06T01:04:03.883Z,98.01
2023-02-06T01:06:36.926Z,97.93
2023-02-06T01:09:23.877Z,98.21
2023-02-06T01:11:57.020Z,98.23
2023-02-06T01:14:43.813Z,98.85
2023-02-06T01:17:16.927Z,98.76
2023-02-06T01:20:03.852Z,98.80
2023-02-06T01:22:40.973Z,99.27
2023-02-06T01:25:27.810Z,99.14
2023-02-06T01:28:07.837Z,99.46
2023-02-06T01:30:54.864Z,99.92
2023-02-06T01:33:28.042Z,99.55
2023-02-06T01:36:14.929Z,99.13
2023-02-06T01:38:55.855Z,99.53
2023-02-06T01:41:49.824Z,99.55
2023-02-06T01:44:37.829Z,99.58
2023-02-06T01:47:11.124Z,99.46
2023-02-06T01:49:57.854Z,99.51
2023-02-06T01:52:34.038Z,99.50
2023-02-06T01:55:20.805Z,98.08
2023-02-06T01:57:53.968Z,98.87
2023-02-06T02:00:40.781Z,98.51
2023-02-06T02:03:14.997Z,98.43
2023-02-06T02:06:06.823Z,97.91
2023-02-06T02:08:46.935Z,98.45
2023-02-06T02:11:44.915Z,98.75
2023-02-06T02:14:28.820Z,98.53
2023-02-06T02:17:52.868Z,98.17
2023-02-06T02:20:44.881Z,98.46
2023-02-06T02:23:47.848Z,98.95
2023-02-06T02:26:52.895Z,98.81
2023-02-06T02:30:07.536Z,98.79
2023-02-06T02:33:11.829Z,98.31
2023-02-06T02:36:00.943Z,98.63
2023-02-06T02:38:57.914Z,98.68
2023-02-06T02:42:08.919Z,98.92
2023-02-06T02:45:27.898Z,98.95
2023-02-06T02:48:36.842Z,99.06
2023-02-06T02:51:30.882Z,98.71
2023-02-06T02:54:17.830Z,99.52
2023-02-06T02:56:51.939Z,98.58
2023-02-06T02:59:52.831Z,98.91
2023-02-06T03:02:38.863Z,99.22
2023-02-06T03:05:30.898Z,99.77
2023-02-06T03:08:51.846Z,99.69
2023-02-06T03:11:45.851Z,99.19
2023-02-06T03:14:47.850Z,99.50
2023-02-06T03:17:31.248Z,99.30
2023-02-06T03:20:18.838Z,99.44
2023-02-06T03:22:55.006Z,99.61
2023-02-06T03:25:47.839Z,99.60
2023-02-06T03:28:34.865Z,99.67
2023-02-06T03:31:27.872Z,99.66
2023-02-06T03:34:27.850Z,99.86
2023-02-06T03:37:22.991Z,99.90
2023-02-06T03:40:12.874Z,99.73
2023-02-06T03:42:51.146Z,99.84
2023-02-06T03:45:42.879Z,99.67
2023-02-06T03:48:22.949Z,99.92
2023-02-06T03:51:15.869Z,100.00
2023-02-06T03:53:51.954Z,100.00
2023-02-06T03:56:51.852Z,100.00
2023-02-06T03:59:26.019Z,100.00
2023-02-06T04:02:13.916Z,100.00
2023-02-06T04:04:55.845Z,100.00
2023-02-06T04:07:49.867Z,100.00
2023-02-06T04:10:36.875Z,100.00
2023-02-06T04:13:16.877Z,100.00
2023-02-06T04:16:03.863Z,99.72
2023-02-06T04:18:37.047Z,100.00
2023-02-06T04:21:23.878Z,100.00
2023-02-06T04:23:56.971Z,100.00
2023-02-06T04:26:43.873Z,100.00
2023-02-06T04:29:23.912Z,100.00
2023-02-06T04:32:17.904Z,100.00
2023-02-06T04:35:11.950Z,100.00
2023-02-06T04:38:05.868Z,100.00
2023-02-06T04:40:59.886Z,100.00
2023-02-06T04:43:46.858Z,100.00
2023-02-06T04:46:20.016Z,100.00
2023-02-06T04:49:06.895Z,100.00
2023-02-06T04:51:46.889Z,100.00
2023-02-06T04:54:40.886Z,100.00
2023-02-06T04:57:27.910Z,100.00
2023-02-06T05:00:00.982Z,100.00
2023-02-06T05:02:47.930Z,100.00
2023-02-06T05:05:27.892Z,100.00
2023-02-06T05:08:21.884Z,100.00
2023-02-06T05:11:08.866Z,100.00
2023-02-06T05:13:49.999Z,100.00
2023-02-06T05:16:43.856Z,100.00
2023-02-06T05:19:30.883Z,100.00
2023-02-06T05:22:04.047Z,100.00
2023-02-06T05:24:50.900Z,100.00
2023-02-06T05:27:24.754Z,100.00
2023-02-06T05:30:11.908Z,100.00
2023-02-06T05:32:44.980Z,100.00
2023-02-06T05:35:31.939Z,100.00
2023-02-06T05:38:04.997Z,100.00
2023-02-06T05:40:51.893Z,100.00
2023-02-06T05:43:25.010Z,100.00
2023-02-06T05:46:11.956Z,100.00
2023-02-06T05:48:45.999Z,100.00
2023-02-06T05:51:33.929Z,100.00
2023-02-06T05:54:07.000Z,100.00
2023-02-06T05:56:53.928Z,100.00
2023-02-06T05:59:33.890Z,100.00
2023-02-06T06:02:20.894Z,100.00
2023-02-06T06:05:00.984Z,100.00
2023-02-06T06:07:54.906Z,100.00
2023-02-06T06:10:41.915Z,100.00
2023-02-06T06:13:21.900Z,100.00
2023-02-06T06:16:15.964Z,100.00
2023-02-06T06:19:02.916Z,100.00
2023-02-06T06:21:42.890Z,100.00
2023-02-06T06:24:29.917Z,100.00
2023-02-06T06:27:03.795Z,100.00
2023-02-06T06:29:43.911Z,100.00
2023-02-06T06:32:30.920Z,100.00
2023-02-06T06:35:17.896Z,100.00
2023-02-06T06:37:51.023Z,100.00
2023-02-06T06:40:37.905Z,100.00
2023-02-06T06:43:17.915Z,100.00
2023-02-06T06:46:06.958Z,100.00
2023-02-06T06:48:46.920Z,100.00
2023-02-06T06:51:40.906Z,100.00
2023-02-06T06:54:28.900Z,100.00
2023-02-06T06:57:02.032Z,100.00
2023-02-06T06:59:48.909Z,100.00
2023-02-06T07:02:23.033Z,100.00
2023-02-06T07:05:10.935Z,100.00
2023-02-06T07:07:44.018Z,100.00
2023-02-06T07:10:30.928Z,100.00
2023-02-06T07:13:04.063Z,100.00
2023-02-06T07:15:50.937Z,100.00
2023-02-06T07:18:24.022Z,100.00
2023-02-06T07:21:10.916Z,100.00
2023-02-06T07:23:44.074Z,100.00
2023-02-06T07:26:30.918Z,100.00
2023-02-06T07:29:10.941Z,100.00
2023-02-06T07:32:04.929Z,100.00
2023-02-06T07:34:52.014Z,100.00
2023-02-06T07:37:25.030Z,100.00
2023-02-06T07:40:11.914Z,100.00
2023-02-06T07:42:46.020Z,100.00
2023-02-06T07:45:34.133Z,100.00
2023-02-06T07:48:16.938Z,100.00
2023-02-06T07:51:16.971Z,100.00
2023-02-06T07:54:03.948Z,100.00
2023-02-06T07:56:37.091Z,100.00
2023-02-06T07:59:23.977Z,98.76
2023-02-06T08:01:57.272Z,98.53
2023-02-06T08:04:43.985Z,98.76
2023-02-06T08:07:23.955Z,99.46
2023-02-06T08:10:17.975Z,98.28
2023-02-06T08:13:11.929Z,98.44
2023-02-06T08:15:58.946Z,99.02
2023-02-06T08:18:32.072Z,98.61
2023-02-06T08:21:29.973Z,97.97
2023-02-06T08:24:06.091Z,98.29
2023-02-06T08:26:52.948Z,96.56
2023-02-06T08:29:26.051Z,97.20
2023-02-06T08:32:12.931Z,94.57
2023-02-06T08:34:52.950Z,96.67
2023-02-06T08:37:47.956Z,96.48
2023-02-06T08:40:34.966Z,96.51
2023-02-06T08:43:14.947Z,95.20
2023-02-06T08:46:09.028Z,94.26
2023-02-06T08:49:08.957Z,94.65
2023-02-06T08:52:02.944Z,94.03
2023-02-06T08:54:56.989Z,93.52
2023-02-06T08:57:43.942Z,92.93
2023-02-06T09:00:24.961Z,90.13
2023-02-06T09:03:18.953Z,88.26
2023-02-06T09:06:10.645Z,89.53
2023-02-06T09:08:45.089Z,90.41
2023-02-06T09:11:33.959Z,90.44
2023-02-06T09:14:10.134Z,91.59
2023-02-06T09:16:56.946Z,91.97
2023-02-06T09:19:30.067Z,92.07
2023-02-06T09:22:16.991Z,91.52
2023-02-06T09:24:50.067Z,89.42
2023-02-06T09:27:36.949Z,87.22
2023-02-06T09:30:11.052Z,89.62
2023-02-06T09:32:57.991Z,90.29
2023-02-06T09:35:31.052Z,90.36
2023-02-06T09:38:17.974Z,89.22
2023-02-06T09:40:51.043Z,89.21
2023-02-06T09:43:39.939Z,88.88
2023-02-06T09:46:29.976Z,88.23
2023-02-06T09:49:33.991Z,87.02
2023-02-06T09:52:57.975Z,84.17
2023-02-06T09:55:34.411Z,85.98
2023-02-06T09:58:32.980Z,87.31
2023-02-06T10:01:25.024Z,86.52
2023-02-06T10:04:29.020Z,87.45
2023-02-06T10:07:30.980Z,88.60
2023-02-06T10:10:33.940Z,86.00
2023-02-06T10:13:50.973Z,87.00
2023-02-06T10:16:50.954Z,88.53
2023-02-06T10:19:58.967Z,88.93
2023-02-06T10:22:49.952Z,88.59
2023-02-06T10:25:40.966Z,88.51
2023-02-06T10:28:41.970Z,89.03
2023-02-06T10:31:32.096Z,88.29
2023-02-06T10:34:36.996Z,89.39
2023-02-06T10:38:24.985Z,89.62
2023-02-06T10:41:36.978Z,89.96
2023-02-06T10:44:37.988Z,89.81
2023-02-06T10:47:32.975Z,90.53
2023-02-06T10:50:40.992Z,90.73
2023-02-06T10:53:32.004Z,90.86
2023-02-06T10:56:31.009Z,90.89
2023-02-06T10:59:35.002Z,90.79
2023-02-06T11:02:21.042Z,90.93
2023-02-06T11:05:13.994Z,89.72
2023-02-06T11:07:59.983Z,90.19
2023-02-06T11:10:54.004Z,90.09
2023-02-06T11:13:44.006Z,90.81
2023-02-06T11:16:20.192Z,90.69
2023-02-06T11:19:16.996Z,90.04
2023-02-06T11:22:03.076Z,90.49
2023-02-06T11:25:07.008Z,91.09
2023-02-06T11:27:44.358Z,90.14
2023-02-06T11:30:42.004Z,90.95
2023-02-06T11:33:28.061Z,91.03
2023-02-06T11:36:30.015Z,91.06
2023-02-06T11:39:16.013Z,91.41
2023-02-06T11:42:13.017Z,91.29
2023-02-06T11:45:07.005Z,90.83
2023-02-06T11:48:01.011Z,91.00
2023-02-06T11:50:55.025Z,91.51
2023-02-06T11:53:49.999Z,90.84
2023-02-06T11:56:38.002Z,90.84
2023-02-06T11:59:29.713Z,91.36
2023-02-06T12:02:31.085Z,91.13
2023-02-06T12:05:32.006Z,91.07
2023-02-06T12:08:23.011Z,91.32
2023-02-06T12:11:13.004Z,91.32
2023-02-06T12:14:05.008Z,91.25
2023-02-06T12:16:52.121Z,91.46
2023-02-06T12:19:58.008Z,91.48
2023-02-06T12:22:51.022Z,90.58
2023-02-06T12:25:43.090Z,90.59
2023-02-06T12:28:38.033Z,89.82
2023-02-06T12:31:27.078Z,91.22
2023-02-06T12:34:35.016Z,91.63
2023-02-06T12:37:38.025Z,91.81
2023-02-06T12:40:45.027Z,90.88
2023-02-06T12:43:20.126Z,90.07
2023-02-06T12:46:32.091Z,91.46
2023-02-06T12:49:42.217Z,90.83
2023-02-06T12:52:34.017Z,91.45
2023-02-06T12:55:28.036Z,91.56
2023-02-06T12:58:40.022Z,90.52
2023-02-06T13:01:34.579Z,89.64
2023-02-06T13:04:19.160Z,91.31
2023-02-06T13:07:20.035Z,91.48
2023-02-06T13:10:01.155Z,90.84
2023-02-06T13:12:48.018Z,90.35
2023-02-06T13:15:30.138Z,91.01
2023-02-06T13:18:48.043Z,91.16
2023-02-06T13:21:36.772Z,89.93
2023-02-06T13:24:26.012Z,90.72
2023-02-06T13:27:06.079Z,90.41
2023-02-06T13:30:02.025Z,90.80
2023-02-06T13:32:58.051Z,90.31
2023-02-06T13:36:02.029Z,90.81
2023-02-06T13:38:52.025Z,91.08
2023-02-06T13:41:44.108Z,91.26
2023-02-06T13:44:46.047Z,91.63
2023-02-06T13:47:55.155Z,91.46
2023-02-06T13:51:01.043Z,91.98
2023-02-06T13:53:54.047Z,92.32
2023-02-06T13:57:01.062Z,90.72
2023-02-06T14:00:00.038Z,90.43
2023-02-06T14:02:55.077Z,90.91
2023-02-06T14:05:47.400Z,90.99
2023-02-06T14:08:50.057Z,90.63
2023-02-06T14:11:41.154Z,90.68
2023-02-06T14:14:43.059Z,91.77
2023-02-06T14:17:40.189Z,91.22
2023-02-06T14:20:41.049Z,91.58
2023-02-06T14:23:55.047Z,92.33
2023-02-06T14:27:04.064Z,92.12
2023-02-06T14:29:51.042Z,92.29
2023-02-06T14:32:24.172Z,92.62
2023-02-06T14:35:27.048Z,92.94
2023-02-06T14:38:28.060Z,92.63
2023-02-06T14:41:16.050Z,92.80
2023-02-06T14:43:58.037Z,93.47
2023-02-06T14:46:38.088Z,93.48
2023-02-06T14:49:32.051Z,92.64
2023-02-06T14:52:35.047Z,93.12
2023-02-06T14:55:45.146Z,94.13
2023-02-06T14:58:41.074Z,93.38
2023-02-06T15:01:33.170Z,93.80
2023-02-06T15:04:28.171Z,93.77
2023-02-06T15:07:29.063Z,94.09
2023-02-06T15:10:09.286Z,93.84
2023-02-06T15:13:00.077Z,94.49
2023-02-06T15:15:39.348Z,94.82
2023-02-06T15:18:26.072Z,95.14
2023-02-06T15:21:06.180Z,94.86
2023-02-06T15:24:02.075Z,95.14
2023-02-06T15:27:02.078Z,95.08
2023-02-06T15:29:42.085Z,94.27
2023-02-06T15:32:52.083Z,95.19
2023-02-06T15:35:50.089Z,95.53
2023-02-06T15:38:40.079Z,94.43
2023-02-06T15:41:14.228Z,94.90
2023-02-06T15:44:07.075Z,95.35
2023-02-06T15:46:49.237Z,95.51
2023-02-06T15:49:53.074Z,95.66
2023-02-06T15:52:54.074Z,95.49
2023-02-06T15:55:49.108Z,95.33
2023-02-06T15:58:37.085Z,95.34
2023-02-06T16:01:14.228Z,95.31
2023-02-06T16:04:06.080Z,95.70
2023-02-06T16:06:39.201Z,95.49
2023-02-06T16:09:28.096Z,95.52
2023-02-06T16:12:03.187Z,95.31
2023-02-06T16:15:03.075Z,95.08
2023-02-06T16:17:51.099Z,95.25
2023-02-06T16:20:53.139Z,95.68
2023-02-06T16:24:10.093Z,95.51
2023-02-06T16:26:55.192Z,95.79
2023-02-06T16:29:42.117Z,95.61
2023-02-06T16:32:29.089Z,95.83
2023-02-06T16:35:26.120Z,95.58
2023-02-06T16:38:16.095Z,95.83
2023-02-06T16:40:49.193Z,96.26
2023-02-06T16:43:38.099Z,96.28
2023-02-06T16:46:11.234Z,96.18
2023-02-06T16:49:05.205Z,96.30
2023-02-06T16:52:00.133Z,96.40
2023-02-06T16:54:47.108Z,96.58
2023-02-06T16:57:42.101Z,96.66
2023-02-06T17:00:42.089Z,96.61
2023-02-06T17:03:29.089Z,96.84
2023-02-06T17:06:09.105Z,96.82
2023-02-06T17:09:04.108Z,96.87
2023-02-06T17:11:51.133Z,96.87
2023-02-06T17:14:24.195Z,97.02
2023-02-06T17:17:11.090Z,97.12
2023-02-06T17:19:44.201Z,97.28
2023-02-06T17:22:31.112Z,97.17
2023-02-06T17:25:11.102Z,97.27
2023-02-06T17:28:05.133Z,97.37
2023-02-06T17:30:53.161Z,97.48
2023-02-06T17:33:26.267Z,97.51
2023-02-06T17:36:14.111Z,97.32
2023-02-06T17:38:47.285Z,97.41
2023-02-06T17:41:34.119Z,97.48
2023-02-06T17:44:14.105Z,97.39
2023-02-06T17:47:01.333Z,97.59
2023-02-06T17:49:41.108Z,97.65
2023-02-06T17:52:35.095Z,97.87
2023-02-06T17:55:23.108Z,97.39
2023-02-06T17:57:56.265Z,97.59
2023-02-06T18:00:43.129Z,97.34
2023-02-06T18:03:25.109Z,97.48
2023-02-06T18:06:19.176Z,97.46
2023-02-06T18:09:06.121Z,97.25
2023-02-06T18:11:46.112Z,97.25
2023-02-06T18:14:40.129Z,97.47
2023-02-06T18:17:34.116Z,97.18
2023-02-06T18:20:29.168Z,96.95
2023-02-06T18:23:23.143Z,97.27
2023-02-06T18:26:12.149Z,97.29
2023-02-06T18:28:46.287Z,97.12
2023-02-06T18:31:36.212Z,96.88
2023-02-06T18:34:20.429Z,96.84
2023-02-06T18:37:14.128Z,96.55
2023-02-06T18:40:08.124Z,97.13
2023-02-06T18:42:58.140Z,97.17
2023-02-06T18:45:34.611Z,97.08
2023-02-06T18:48:28.121Z,97.06
2023-02-06T18:51:22.112Z,97.09
2023-02-06T18:54:16.127Z,96.79
2023-02-06T18:57:10.133Z,96.92
2023-02-06T19:00:04.122Z,96.62
2023-02-06T19:02:58.106Z,96.58
2023-02-06T19:05:45.134Z,96.40
2023-02-06T19:08:19.651Z,96.43
2023-02-06T19:11:06.142Z,96.72
2023-02-06T19:13:40.629Z,96.66
2023-02-06T19:16:28.240Z,96.61
2023-02-06T19:19:08.135Z,96.65
2023-02-06T19:22:03.153Z,96.35
2023-02-06T19:24:51.143Z,96.30
2023-02-06T19:27:26.151Z,96.31
2023-02-06T19:30:17.139Z,96.24
2023-02-06T19:32:51.521Z,96.16
2023-02-06T19:35:38.126Z,96.16
2023-02-06T19:38:18.143Z,95.86
2023-02-06T19:41:22.164Z,96.57
2023-02-06T19:44:20.157Z,96.24
2023-02-06T19:47:15.173Z,96.21
2023-02-06T19:50:09.150Z,95.93
2023-02-06T19:52:56.144Z,95.71
2023-02-06T19:55:36.131Z,96.02
2023-02-06T19:58:30.622Z,95.75
2023-02-06T20:01:19.229Z,95.83
2023-02-06T20:03:59.154Z,95.71
2023-02-06T20:06:46.150Z,96.17
2023-02-06T20:09:28.194Z,95.48
2023-02-06T20:12:17.148Z,95.49
2023-02-06T20:14:50.255Z,95.81
2023-02-06T20:17:37.165Z,95.72
2023-02-06T20:20:18.162Z,95.59
2023-02-06T20:23:05.164Z,95.88
2023-02-06T20:25:45.158Z,95.75
2023-02-06T20:28:39.152Z,95.56
2023-02-06T20:31:27.777Z,95.70
2023-02-06T20:34:09.146Z,95.51
2023-02-06T20:37:04.158Z,95.24
2023-02-06T20:39:58.138Z,95.27
2023-02-06T20:43:00.158Z,94.94
2023-02-06T20:45:54.202Z,94.99
2023-02-06T20:48:49.171Z,95.19
2023-02-06T20:51:37.165Z,95.01
2023-02-06T20:54:11.607Z,95.23
2023-02-06T20:56:58.165Z,95.14
2023-02-06T20:59:31.247Z,94.96
2023-02-06T21:02:18.195Z,95.09
2023-02-06T21:04:52.357Z,95.11
2023-02-06T21:07:40.144Z,95.03
2023-02-06T21:10:20.186Z,94.76
2023-02-06T21:13:14.153Z,94.93
2023-02-06T21:16:11.946Z,95.12
2023-02-06T21:19:01.183Z,95.09
2023-02-06T21:21:34.309Z,94.82
2023-02-06T21:24:22.173Z,94.69
2023-02-06T21:26:55.260Z,94.62
2023-02-06T21:29:42.180Z,94.67
2023-02-06T21:32:15.321Z,95.05
2023-02-06T21:35:02.456Z,94.46
2023-02-06T21:37:42.174Z,94.77
2023-02-06T21:40:29.166Z,94.83
2023-02-06T21:43:09.172Z,94.94
2023-02-06T21:46:03.398Z,95.08
2023-02-06T21:48:57.215Z,95.09
2023-02-06T21:51:51.161Z,94.93
2023-02-06T21:54:38.194Z,94.97
2023-02-06T21:57:11.291Z,94.94
2023-02-06T21:59:58.172Z,94.69
2023-02-06T22:02:38.208Z,94.65
2023-02-06T22:05:25.175Z,94.56
2023-02-06T22:07:58.992Z,94.76
2023-02-06T22:10:46.181Z,95.26
2023-02-06T22:13:26.187Z,94.86
2023-02-06T22:16:21.213Z,95.11
2023-02-06T22:19:08.170Z,94.43
2023-02-06T22:22:00.962Z,94.78
2023-02-06T22:24:47.193Z,94.92
2023-02-06T22:27:20.365Z,95.26
2023-02-06T22:30:07.218Z,95.29
2023-02-06T22:32:47.295Z,95.82
2023-02-06T22:35:34.191Z,95.12
2023-02-06T22:38:14.213Z,94.70
2023-02-06T22:41:17.457Z,94.96
2023-02-06T22:44:04.191Z,95.31
2023-02-06T22:46:41.424Z,95.10
2023-02-06T22:49:35.189Z,95.37
2023-02-06T22:52:48.191Z,95.19
2023-02-06T22:55:55.179Z,95.79
2023-02-06T22:58:28.287Z,95.74
2023-02-06T23:01:15.224Z,96.01
2023-02-06T23:03:48.282Z,95.66
2023-02-06T23:06:37.198Z,95.42
2023-02-06T23:09:19.197Z,95.69
2023-02-06T23:12:13.200Z,95.59
2023-02-06T23:15:00.210Z,95.89
2023-02-06T23:17:33.453Z,95.79
2023-02-06T23:20:20.208Z,96.08
2023-02-06T23:22:53.303Z,95.95
2023-02-06T23:25:40.226Z,96.03
2023-02-06T23:28:13.406Z,96.12
2023-02-06T23:31:01.236Z,95.95
2023-02-06T23:33:34.310Z,95.71
2023-02-06T23:36:31.213Z,96.14
2023-02-06T23:39:15.232Z,96.11
2023-02-06T23:42:09.200Z,96.09
2023-02-06T23:44:56.207Z,95.85
2023-02-06T23:47:29.311Z,96.21
2023-02-06T23:50:23.183Z,96.20
2023-02-06T23:53:17.222Z,96.24
2023-02-06T23:56:04.212Z,96.49
2023-02-06T23:58:44.229Z,96.59
